sensor_id;sensor_type;location;lat;lon;timestamp;P1;durP1;ratioP1;P2;durP2;ratioP2
31692;SDS011;37436;53.230;6.614;2023-04-25T00:00:40;39.97;;;4.95;;
31692;SDS011;37436;53.230;6.614;2023-04-25T00:03:14;18.83;;;4.22;;
31692;SDS011;37436;53.230;6.614;2023-04-25T00:05:49;27.73;;;4.15;;
31692;SDS011;37436;53.230;6.614;2023-04-25T00:08:19;31.05;;;4.20;;
31692;SDS011;37436;53.230;6.614;2023-04-25T00:10:45;32.28;;;5.68;;
31692;SDS011;37436;53.230;6.614;2023-04-25T00:13:15;31.20;;;5.30;;
31692;SDS011;37436;53.230;6.614;2023-04-25T00:15:45;27.08;;;5.03;;
31692;SDS011;37436;53.230;6.614;2023-04-25T00:18:14;27.95;;;3.67;;
31692;SDS011;37436;53.230;6.614;2023-04-25T00:20:40;17.55;;;4.13;;
31692;SDS011;37436;53.230;6.614;2023-04-25T00:23:11;22.33;;;4.03;;
31692;SDS011;37436;53.230;6.614;2023-04-25T00:25:41;25.55;;;4.35;;
31692;SDS011;37436;53.230;6.614;2023-04-25T00:28:09;24.35;;;3.92;;
31692;SDS011;37436;53.230;6.614;2023-04-25T00:30:55;26.15;;;3.67;;
31692;SDS011;37436;53.230;6.614;2023-04-25T00:33:21;20.90;;;3.53;;
31692;SDS011;37436;53.230;6.614;2023-04-25T00:35:48;22.20;;;3.20;;
31692;SDS011;37436;53.230;6.614;2023-04-25T00:38:26;21.17;;;3.70;;
31692;SDS011;37436;53.230;6.614;2023-04-25T00:40:56;23.13;;;3.38;;
31692;SDS011;37436;53.230;6.614;2023-04-25T00:43:36;25.90;;;3.75;;
31692;SDS011;37436;53.230;6.614;2023-04-25T00:46:03;21.70;;;3.58;;
31692;SDS011;37436;53.230;6.614;2023-04-25T00:48:53;19.40;;;2.85;;
31692;SDS011;37436;53.230;6.614;2023-04-25T00:51:24;20.13;;;2.97;;
31692;SDS011;37436;53.230;6.614;2023-04-25T00:54:00;18.17;;;3.22;;
31692;SDS011;37436;53.230;6.614;2023-04-25T00:56:29;20.63;;;3.65;;
31692;SDS011;37436;53.230;6.614;2023-04-25T00:59:19;18.27;;;4.15;;
31692;SDS011;37436;53.230;6.614;2023-04-25T01:01:53;22.02;;;3.17;;
31692;SDS011;37436;53.230;6.614;2023-04-25T01:04:21;12.43;;;3.00;;
31692;SDS011;37436;53.230;6.614;2023-04-25T01:06:47;15.68;;;2.80;;
31692;SDS011;37436;53.230;6.614;2023-04-25T01:09:13;23.90;;;3.45;;
31692;SDS011;37436;53.230;6.614;2023-04-25T01:11:59;29.73;;;2.30;;
31692;SDS011;37436;53.230;6.614;2023-04-25T01:14:26;10.80;;;1.75;;
31692;SDS011;37436;53.230;6.614;2023-04-25T01:16:52;19.88;;;2.78;;
31692;SDS011;37436;53.230;6.614;2023-04-25T01:19:32;17.20;;;2.70;;
31692;SDS011;37436;53.230;6.614;2023-04-25T01:21:59;15.18;;;2.60;;
31692;SDS011;37436;53.230;6.614;2023-04-25T01:24:25;10.35;;;2.40;;
31692;SDS011;37436;53.230;6.614;2023-04-25T01:26:52;11.85;;;2.80;;
31692;SDS011;37436;53.230;6.614;2023-04-25T01:29:23;13.70;;;3.60;;
31692;SDS011;37436;53.230;6.614;2023-04-25T01:31:57;10.18;;;2.45;;
31692;SDS011;37436;53.230;6.614;2023-04-25T01:34:32;13.90;;;2.38;;
31692;SDS011;37436;53.230;6.614;2023-04-25T01:37:01;12.05;;;2.38;;
31692;SDS011;37436;53.230;6.614;2023-04-25T01:39:28;15.90;;;2.30;;
31692;SDS011;37436;53.230;6.614;2023-04-25T01:42:17;19.08;;;2.88;;
31692;SDS011;37436;53.230;6.614;2023-04-25T01:44:43;16.13;;;3.28;;
31692;SDS011;37436;53.230;6.614;2023-04-25T01:47:13;18.25;;;3.15;;
31692;SDS011;37436;53.230;6.614;2023-04-25T01:49:39;21.98;;;2.38;;
31692;SDS011;37436;53.230;6.614;2023-04-25T01:52:05;13.30;;;2.47;;
31692;SDS011;37436;53.230;6.614;2023-04-25T01:54:39;15.32;;;3.05;;
31692;SDS011;37436;53.230;6.614;2023-04-25T01:57:11;18.83;;;2.40;;
31692;SDS011;37436;53.230;6.614;2023-04-25T01:59:40;27.67;;;3.88;;
31692;SDS011;37436;53.230;6.614;2023-04-25T02:02:07;15.63;;;3.05;;
31692;SDS011;37436;53.230;6.614;2023-04-25T02:07:19;17.67;;;2.78;;
31692;SDS011;37436;53.230;6.614;2023-04-25T02:10:00;10.40;;;2.22;;
31692;SDS011;37436;53.230;6.614;2023-04-25T02:12:27;25.20;;;3.78;;
31692;SDS011;37436;53.230;6.614;2023-04-25T02:14:53;18.98;;;3.65;;
31692;SDS011;37436;53.230;6.614;2023-04-25T02:17:20;31.27;;;4.18;;
31692;SDS011;37436;53.230;6.614;2023-04-25T02:19:47;18.17;;;2.97;;
31692;SDS011;37436;53.230;6.614;2023-04-25T02:22:15;24.63;;;3.25;;
31692;SDS011;37436;53.230;6.614;2023-04-25T02:24:41;22.83;;;2.92;;
31692;SDS011;37436;53.230;6.614;2023-04-25T02:27:08;17.48;;;3.05;;
31692;SDS011;37436;53.230;6.614;2023-04-25T02:29:34;14.32;;;2.80;;
31692;SDS011;37436;53.230;6.614;2023-04-25T02:32:02;14.15;;;3.33;;
31692;SDS011;37436;53.230;6.614;2023-04-25T02:34:28;23.65;;;3.00;;
31692;SDS011;37436;53.230;6.614;2023-04-25T02:36:55;27.65;;;3.58;;
31692;SDS011;37436;53.230;6.614;2023-04-25T02:39:21;18.15;;;2.97;;
31692;SDS011;37436;53.230;6.614;2023-04-25T02:41:50;19.27;;;3.30;;
31692;SDS011;37436;53.230;6.614;2023-04-25T02:44:31;12.68;;;2.65;;
31692;SDS011;37436;53.230;6.614;2023-04-25T02:46:57;18.65;;;3.00;;
31692;SDS011;37436;53.230;6.614;2023-04-25T02:52:16;13.38;;;1.85;;
31692;SDS011;37436;53.230;6.614;2023-04-25T02:54:43;8.40;;;2.00;;
31692;SDS011;37436;53.230;6.614;2023-04-25T02:57:10;26.60;;;2.72;;
31692;SDS011;37436;53.230;6.614;2023-04-25T02:59:36;13.90;;;2.78;;
31692;SDS011;37436;53.230;6.614;2023-04-25T03:02:12;11.52;;;2.75;;
31692;SDS011;37436;53.230;6.614;2023-04-25T03:07:10;13.45;;;3.20;;
31692;SDS011;37436;53.230;6.614;2023-04-25T03:09:38;22.35;;;2.58;;
31692;SDS011;37436;53.230;6.614;2023-04-25T03:12:04;19.73;;;3.10;;
31692;SDS011;37436;53.230;6.614;2023-04-25T03:17:36;11.80;;;1.70;;
31692;SDS011;37436;53.230;6.614;2023-04-25T03:20:13;9.18;;;2.58;;
31692;SDS011;37436;53.230;6.614;2023-04-25T03:22:42;11.60;;;2.65;;
31692;SDS011;37436;53.230;6.614;2023-04-25T03:25:09;15.63;;;2.33;;
31692;SDS011;37436;53.230;6.614;2023-04-25T03:27:36;20.17;;;3.10;;
31692;SDS011;37436;53.230;6.614;2023-04-25T03:30:02;12.82;;;2.22;;
31692;SDS011;37436;53.230;6.614;2023-04-25T03:32:28;11.00;;;3.17;;
31692;SDS011;37436;53.230;6.614;2023-04-25T03:34:57;15.77;;;2.65;;
31692;SDS011;37436;53.230;6.614;2023-04-25T03:37:23;8.82;;;1.95;;
31692;SDS011;37436;53.230;6.614;2023-04-25T03:39:49;28.02;;;3.17;;
31692;SDS011;37436;53.230;6.614;2023-04-25T03:42:16;16.92;;;2.30;;
31692;SDS011;37436;53.230;6.614;2023-04-25T03:44:42;15.57;;;2.45;;
31692;SDS011;37436;53.230;6.614;2023-04-25T03:47:12;15.05;;;2.13;;
31692;SDS011;37436;53.230;6.614;2023-04-25T03:49:41;9.65;;;1.83;;
31692;SDS011;37436;53.230;6.614;2023-04-25T03:52:07;14.85;;;2.20;;
31692;SDS011;37436;53.230;6.614;2023-04-25T03:54:36;8.00;;;1.85;;
31692;SDS011;37436;53.230;6.614;2023-04-25T03:57:02;9.55;;;1.92;;
31692;SDS011;37436;53.230;6.614;2023-04-25T03:59:29;12.48;;;2.05;;
31692;SDS011;37436;53.230;6.614;2023-04-25T04:01:58;13.55;;;2.42;;
31692;SDS011;37436;53.230;6.614;2023-04-25T04:04:25;20.88;;;2.15;;
31692;SDS011;37436;53.230;6.614;2023-04-25T04:07:09;14.32;;;3.00;;
31692;SDS011;37436;53.230;6.614;2023-04-25T04:09:44;15.55;;;2.40;;
31692;SDS011;37436;53.230;6.614;2023-04-25T04:12:16;13.20;;;2.60;;
31692;SDS011;37436;53.230;6.614;2023-04-25T04:14:42;18.00;;;2.65;;
31692;SDS011;37436;53.230;6.614;2023-04-25T04:17:08;9.88;;;2.15;;
31692;SDS011;37436;53.230;6.614;2023-04-25T04:19:35;18.25;;;3.40;;
31692;SDS011;37436;53.230;6.614;2023-04-25T04:22:01;13.07;;;2.28;;
31692;SDS011;37436;53.230;6.614;2023-04-25T04:24:27;13.27;;;2.70;;
31692;SDS011;37436;53.230;6.614;2023-04-25T04:26:53;10.93;;;2.30;;
31692;SDS011;37436;53.230;6.614;2023-04-25T04:29:20;9.40;;;2.55;;
31692;SDS011;37436;53.230;6.614;2023-04-25T04:31:49;14.63;;;2.55;;
31692;SDS011;37436;53.230;6.614;2023-04-25T04:34:16;16.98;;;2.92;;
31692;SDS011;37436;53.230;6.614;2023-04-25T04:36:47;10.52;;;2.50;;
31692;SDS011;37436;53.230;6.614;2023-04-25T04:39:20;26.13;;;3.53;;
31692;SDS011;37436;53.230;6.614;2023-04-25T04:41:46;17.08;;;3.45;;
31692;SDS011;37436;53.230;6.614;2023-04-25T04:44:13;40.53;;;9.50;;
31692;SDS011;37436;53.230;6.614;2023-04-25T04:46:41;16.30;;;3.10;;
31692;SDS011;37436;53.230;6.614;2023-04-25T04:49:10;10.85;;;2.50;;
31692;SDS011;37436;53.230;6.614;2023-04-25T04:51:37;5.72;;;1.63;;
31692;SDS011;37436;53.230;6.614;2023-04-25T04:54:04;20.50;;;2.42;;
31692;SDS011;37436;53.230;6.614;2023-04-25T04:56:30;11.38;;;2.47;;
31692;SDS011;37436;53.230;6.614;2023-04-25T04:58:57;8.80;;;2.47;;
31692;SDS011;37436;53.230;6.614;2023-04-25T05:01:24;16.58;;;2.65;;
31692;SDS011;37436;53.230;6.614;2023-04-25T05:03:52;20.45;;;2.60;;
31692;SDS011;37436;53.230;6.614;2023-04-25T05:06:18;6.57;;;1.55;;
31692;SDS011;37436;53.230;6.614;2023-04-25T05:08:44;10.10;;;1.80;;
31692;SDS011;37436;53.230;6.614;2023-04-25T05:11:11;4.18;;;1.50;;
31692;SDS011;37436;53.230;6.614;2023-04-25T05:13:37;13.88;;;2.17;;
31692;SDS011;37436;53.230;6.614;2023-04-25T05:16:03;4.78;;;1.60;;
31692;SDS011;37436;53.230;6.614;2023-04-25T05:18:29;4.10;;;1.50;;
31692;SDS011;37436;53.230;6.614;2023-04-25T05:20:58;5.40;;;1.23;;
31692;SDS011;37436;53.230;6.614;2023-04-25T05:23:32;8.18;;;0.85;;
31692;SDS011;37436;53.230;6.614;2023-04-25T05:25:59;5.10;;;1.50;;
31692;SDS011;37436;53.230;6.614;2023-04-25T05:28:25;2.03;;;0.82;;
31692;SDS011;37436;53.230;6.614;2023-04-25T05:30:52;8.25;;;1.65;;
31692;SDS011;37436;53.230;6.614;2023-04-25T05:33:24;6.20;;;1.30;;
31692;SDS011;37436;53.230;6.614;2023-04-25T05:35:51;3.72;;;1.65;;
31692;SDS011;37436;53.230;6.614;2023-04-25T05:38:17;2.92;;;1.35;;
31692;SDS011;37436;53.230;6.614;2023-04-25T05:40:43;10.95;;;1.40;;
31692;SDS011;37436;53.230;6.614;2023-04-25T05:43:09;4.75;;;1.55;;
31692;SDS011;37436;53.230;6.614;2023-04-25T05:45:46;4.07;;;1.30;;
31692;SDS011;37436;53.230;6.614;2023-04-25T05:48:13;6.15;;;1.83;;
31692;SDS011;37436;53.230;6.614;2023-04-25T05:51:21;9.20;;;1.83;;
31692;SDS011;37436;53.230;6.614;2023-04-25T05:53:47;5.20;;;1.67;;
31692;SDS011;37436;53.230;6.614;2023-04-25T05:58:59;8.57;;;1.48;;
31692;SDS011;37436;53.230;6.614;2023-04-25T06:01:26;8.85;;;2.25;;
31692;SDS011;37436;53.230;6.614;2023-04-25T06:03:52;4.53;;;1.80;;
31692;SDS011;37436;53.230;6.614;2023-04-25T06:06:18;10.30;;;1.90;;
31692;SDS011;37436;53.230;6.614;2023-04-25T06:08:45;9.52;;;1.90;;
31692;SDS011;37436;53.230;6.614;2023-04-25T06:11:11;15.13;;;1.80;;
31692;SDS011;37436;53.230;6.614;2023-04-25T06:13:37;9.88;;;1.88;;
31692;SDS011;37436;53.230;6.614;2023-04-25T06:16:03;10.57;;;2.03;;
31692;SDS011;37436;53.230;6.614;2023-04-25T06:18:45;11.18;;;1.58;;
31692;SDS011;37436;53.230;6.614;2023-04-25T06:21:11;4.72;;;1.40;;
31692;SDS011;37436;53.230;6.614;2023-04-25T06:23:37;10.90;;;1.38;;
31692;SDS011;37436;53.230;6.614;2023-04-25T06:26:03;8.90;;;1.10;;
31692;SDS011;37436;53.230;6.614;2023-04-25T06:28:33;5.90;;;1.20;;
31692;SDS011;37436;53.230;6.614;2023-04-25T06:30:59;5.53;;;1.55;;
31692;SDS011;37436;53.230;6.614;2023-04-25T06:33:26;11.05;;;1.30;;
31692;SDS011;37436;53.230;6.614;2023-04-25T06:35:54;5.20;;;1.25;;
31692;SDS011;37436;53.230;6.614;2023-04-25T06:38:25;6.43;;;1.50;;
31692;SDS011;37436;53.230;6.614;2023-04-25T06:40:51;9.20;;;1.83;;
31692;SDS011;37436;53.230;6.614;2023-04-25T06:43:17;6.35;;;0.95;;
31692;SDS011;37436;53.230;6.614;2023-04-25T06:48:29;9.85;;;1.70;;
31692;SDS011;37436;53.230;6.614;2023-04-25T06:50:55;11.90;;;2.45;;
31692;SDS011;37436;53.230;6.614;2023-04-25T06:53:24;12.02;;;1.40;;
31692;SDS011;37436;53.230;6.614;2023-04-25T06:56:04;14.10;;;1.77;;
31692;SDS011;37436;53.230;6.614;2023-04-25T06:58:33;9.40;;;1.50;;
31692;SDS011;37436;53.230;6.614;2023-04-25T07:01:00;16.05;;;2.25;;
31692;SDS011;37436;53.230;6.614;2023-04-25T07:03:30;12.30;;;1.80;;
31692;SDS011;37436;53.230;6.614;2023-04-25T07:05:59;15.48;;;2.30;;
31692;SDS011;37436;53.230;6.614;2023-04-25T07:11:37;9.45;;;2.55;;
31692;SDS011;37436;53.230;6.614;2023-04-25T07:14:03;11.55;;;1.58;;
31692;SDS011;37436;53.230;6.614;2023-04-25T07:16:36;9.55;;;1.77;;
31692;SDS011;37436;53.230;6.614;2023-04-25T07:19:07;3.22;;;1.35;;
31692;SDS011;37436;53.230;6.614;2023-04-25T07:21:41;8.77;;;2.40;;
31692;SDS011;37436;53.230;6.614;2023-04-25T07:24:10;11.75;;;1.35;;
31692;SDS011;37436;53.230;6.614;2023-04-25T07:26:36;6.07;;;1.52;;
31692;SDS011;37436;53.230;6.614;2023-04-25T07:29:02;4.00;;;1.33;;
31692;SDS011;37436;53.230;6.614;2023-04-25T07:31:52;4.20;;;1.15;;
31692;SDS011;37436;53.230;6.614;2023-04-25T07:34:18;8.77;;;1.33;;
31692;SDS011;37436;53.230;6.614;2023-04-25T07:36:55;3.25;;;1.08;;
31692;SDS011;37436;53.230;6.614;2023-04-25T07:40:00;9.77;;;1.52;;
31692;SDS011;37436;53.230;6.614;2023-04-25T07:42:29;9.18;;;1.30;;
31692;SDS011;37436;53.230;6.614;2023-04-25T07:44:56;4.20;;;0.82;;
31692;SDS011;37436;53.230;6.614;2023-04-25T07:47:29;8.57;;;1.50;;
31692;SDS011;37436;53.230;6.614;2023-04-25T07:49:59;19.98;;;1.58;;
31692;SDS011;37436;53.230;6.614;2023-04-25T07:55:27;7.60;;;1.33;;
31692;SDS011;37436;53.230;6.614;2023-04-25T07:58:18;13.23;;;1.52;;
31692;SDS011;37436;53.230;6.614;2023-04-25T08:15:55;2.70;;;1.20;;
31692;SDS011;37436;53.230;6.614;2023-04-25T08:18:30;37.03;;;2.55;;
31692;SDS011;37436;53.230;6.614;2023-04-25T08:24:33;11.23;;;2.08;;
31692;SDS011;37436;53.230;6.614;2023-04-25T08:30:10;2.75;;;0.38;;
31692;SDS011;37436;53.230;6.614;2023-04-25T08:32:37;4.70;;;0.80;;
31692;SDS011;37436;53.230;6.614;2023-04-25T08:35:06;6.05;;;1.00;;
31692;SDS011;37436;53.230;6.614;2023-04-25T08:37:32;12.32;;;1.00;;
31692;SDS011;37436;53.230;6.614;2023-04-25T08:40:05;1.95;;;1.00;;
31692;SDS011;37436;53.230;6.614;2023-04-25T08:42:35;2.67;;;0.80;;
31692;SDS011;37436;53.230;6.614;2023-04-25T08:45:03;2.13;;;0.52;;
31692;SDS011;37436;53.230;6.614;2023-04-25T08:47:32;1.75;;;1.15;;
31692;SDS011;37436;53.230;6.614;2023-04-25T08:56:37;3.35;;;1.10;;
31692;SDS011;37436;53.230;6.614;2023-04-25T09:01:58;3.55;;;1.08;;
31692;SDS011;37436;53.230;6.614;2023-04-25T09:07:28;2.90;;;1.10;;
31692;SDS011;37436;53.230;6.614;2023-04-25T09:13:17;3.97;;;1.63;;
31692;SDS011;37436;53.230;6.614;2023-04-25T09:16:20;7.38;;;1.90;;
31692;SDS011;37436;53.230;6.614;2023-04-25T09:19:22;5.03;;;1.33;;
31692;SDS011;37436;53.230;6.614;2023-04-25T09:28:47;21.27;;;2.90;;
31692;SDS011;37436;53.230;6.614;2023-04-25T09:47:03;9.38;;;1.85;;
31692;SDS011;37436;53.230;6.614;2023-04-25T09:49:30;3.17;;;1.15;;
31692;SDS011;37436;53.230;6.614;2023-04-25T09:52:14;4.47;;;1.55;;
31692;SDS011;37436;53.230;6.614;2023-04-25T09:54:57;5.85;;;1.60;;
31692;SDS011;37436;53.230;6.614;2023-04-25T09:57:47;3.38;;;1.33;;
31692;SDS011;37436;53.230;6.614;2023-04-25T10:03:35;11.45;;;1.88;;
31692;SDS011;37436;53.230;6.614;2023-04-25T10:15:26;3.38;;;1.30;;
31692;SDS011;37436;53.230;6.614;2023-04-25T10:17:58;6.47;;;1.13;;
31692;SDS011;37436;53.230;6.614;2023-04-25T10:20:26;8.57;;;1.35;;
31692;SDS011;37436;53.230;6.614;2023-04-25T10:25:54;5.53;;;1.77;;
31692;SDS011;37436;53.230;6.614;2023-04-25T10:28:23;7.43;;;1.52;;
31692;SDS011;37436;53.230;6.614;2023-04-25T10:31:11;13.27;;;2.38;;
31692;SDS011;37436;53.230;6.614;2023-04-25T10:34:02;6.47;;;1.70;;
31692;SDS011;37436;53.230;6.614;2023-04-25T10:36:59;6.45;;;1.70;;
31692;SDS011;37436;53.230;6.614;2023-04-25T10:42:26;7.50;;;2.35;;
31692;SDS011;37436;53.230;6.614;2023-04-25T10:45:06;8.85;;;1.55;;
31692;SDS011;37436;53.230;6.614;2023-04-25T10:47:43;4.60;;;1.35;;
31692;SDS011;37436;53.230;6.614;2023-04-25T10:50:20;10.80;;;1.50;;
31692;SDS011;37436;53.230;6.614;2023-04-25T10:55:50;4.57;;;1.42;;
31692;SDS011;37436;53.230;6.614;2023-04-25T10:58:20;3.22;;;1.15;;
31692;SDS011;37436;53.230;6.614;2023-04-25T11:00:51;29.48;;;4.57;;
31692;SDS011;37436;53.230;6.614;2023-04-25T11:03:21;11.80;;;1.52;;
31692;SDS011;37436;53.230;6.614;2023-04-25T11:05:55;14.07;;;1.97;;
31692;SDS011;37436;53.230;6.614;2023-04-25T11:08:57;12.07;;;2.55;;
31692;SDS011;37436;53.230;6.614;2023-04-25T11:11:29;5.05;;;1.20;;
31692;SDS011;37436;53.230;6.614;2023-04-25T11:17:02;5.68;;;2.00;;
31692;SDS011;37436;53.230;6.614;2023-04-25T11:22:53;5.18;;;1.08;;
31692;SDS011;37436;53.230;6.614;2023-04-25T11:25:27;2.85;;;1.23;;
31692;SDS011;37436;53.230;6.614;2023-04-25T11:27:54;7.55;;;1.60;;
31692;SDS011;37436;53.230;6.614;2023-04-25T11:30:52;7.53;;;1.95;;
31692;SDS011;37436;53.230;6.614;2023-04-25T11:33:22;11.05;;;1.80;;
31692;SDS011;37436;53.230;6.614;2023-04-25T11:35:50;13.48;;;2.40;;
31692;SDS011;37436;53.230;6.614;2023-04-25T11:38:25;9.73;;;1.65;;
31692;SDS011;37436;53.230;6.614;2023-04-25T11:40:55;11.55;;;1.70;;
31692;SDS011;37436;53.230;6.614;2023-04-25T11:43:29;7.53;;;1.60;;
31692;SDS011;37436;53.230;6.614;2023-04-25T11:45:56;10.00;;;1.50;;
31692;SDS011;37436;53.230;6.614;2023-04-25T11:48:42;9.93;;;2.45;;
31692;SDS011;37436;53.230;6.614;2023-04-25T11:51:21;3.83;;;1.42;;
31692;SDS011;37436;53.230;6.614;2023-04-25T11:53:48;4.07;;;1.33;;
31692;SDS011;37436;53.230;6.614;2023-04-25T11:56:18;9.38;;;1.42;;
31692;SDS011;37436;53.230;6.614;2023-04-25T11:58:56;9.82;;;2.00;;
31692;SDS011;37436;53.230;6.614;2023-04-25T12:01:32;13.90;;;2.75;;
31692;SDS011;37436;53.230;6.614;2023-04-25T12:06:47;9.05;;;2.72;;
31692;SDS011;37436;53.230;6.614;2023-04-25T12:09:14;7.35;;;1.98;;
31692;SDS011;37436;53.230;6.614;2023-04-25T12:11:43;6.25;;;1.63;;
31692;SDS011;37436;53.230;6.614;2023-04-25T12:14:11;7.70;;;1.70;;
31692;SDS011;37436;53.230;6.614;2023-04-25T12:16:45;12.35;;;1.88;;
31692;SDS011;37436;53.230;6.614;2023-04-25T12:19:15;10.80;;;1.98;;
31692;SDS011;37436;53.230;6.614;2023-04-25T12:21:42;3.67;;;0.90;;
31692;SDS011;37436;53.230;6.614;2023-04-25T12:24:15;16.02;;;2.00;;
31692;SDS011;37436;53.230;6.614;2023-04-25T12:26:53;15.00;;;1.80;;
31692;SDS011;37436;53.230;6.614;2023-04-25T12:29:23;9.35;;;1.77;;
31692;SDS011;37436;53.230;6.614;2023-04-25T12:31:53;25.05;;;1.83;;
31692;SDS011;37436;53.230;6.614;2023-04-25T12:34:20;7.55;;;1.52;;
31692;SDS011;37436;53.230;6.614;2023-04-25T12:36:48;8.32;;;1.88;;
31692;SDS011;37436;53.230;6.614;2023-04-25T12:39:17;8.50;;;1.63;;
31692;SDS011;37436;53.230;6.614;2023-04-25T12:41:47;11.30;;;1.70;;
31692;SDS011;37436;53.230;6.614;2023-04-25T12:44:13;5.57;;;1.52;;
31692;SDS011;37436;53.230;6.614;2023-04-25T12:46:40;7.75;;;1.60;;
31692;SDS011;37436;53.230;6.614;2023-04-25T12:49:15;7.15;;;1.80;;
31692;SDS011;37436;53.230;6.614;2023-04-25T12:51:41;7.60;;;1.27;;
31692;SDS011;37436;53.230;6.614;2023-04-25T12:54:08;8.95;;;1.17;;
31692;SDS011;37436;53.230;6.614;2023-04-25T12:56:35;10.82;;;1.55;;
31692;SDS011;37436;53.230;6.614;2023-04-25T12:59:02;11.70;;;2.33;;
31692;SDS011;37436;53.230;6.614;2023-04-25T13:01:28;5.60;;;1.30;;
31692;SDS011;37436;53.230;6.614;2023-04-25T13:03:55;7.28;;;1.83;;
31692;SDS011;37436;53.230;6.614;2023-04-25T13:06:21;5.82;;;1.50;;
31692;SDS011;37436;53.230;6.614;2023-04-25T13:08:47;9.15;;;1.75;;
31692;SDS011;37436;53.230;6.614;2023-04-25T13:11:13;6.65;;;1.55;;
31692;SDS011;37436;53.230;6.614;2023-04-25T13:13:40;6.00;;;1.70;;
31692;SDS011;37436;53.230;6.614;2023-04-25T13:16:06;2.72;;;1.10;;
31692;SDS011;37436;53.230;6.614;2023-04-25T13:18:35;5.90;;;1.48;;
31692;SDS011;37436;53.230;6.614;2023-04-25T13:21:02;6.75;;;1.90;;
31692;SDS011;37436;53.230;6.614;2023-04-25T13:23:28;4.82;;;1.17;;
31692;SDS011;37436;53.230;6.614;2023-04-25T13:25:56;7.55;;;1.15;;
31692;SDS011;37436;53.230;6.614;2023-04-25T13:28:23;12.93;;;2.13;;
31692;SDS011;37436;53.230;6.614;2023-04-25T13:30:49;8.98;;;2.03;;
31692;SDS011;37436;53.230;6.614;2023-04-25T13:33:16;13.57;;;2.95;;
31692;SDS011;37436;53.230;6.614;2023-04-25T13:35:42;11.70;;;2.15;;
31692;SDS011;37436;53.230;6.614;2023-04-25T13:38:11;8.68;;;1.48;;
31692;SDS011;37436;53.230;6.614;2023-04-25T13:40:38;4.88;;;1.50;;
31692;SDS011;37436;53.230;6.614;2023-04-25T13:43:04;7.57;;;1.60;;
31692;SDS011;37436;53.230;6.614;2023-04-25T13:45:31;6.40;;;1.67;;
31692;SDS011;37436;53.230;6.614;2023-04-25T13:47:59;6.15;;;1.63;;
31692;SDS011;37436;53.230;6.614;2023-04-25T13:50:25;4.10;;;1.50;;
31692;SDS011;37436;53.230;6.614;2023-04-25T13:52:51;3.60;;;1.27;;
31692;SDS011;37436;53.230;6.614;2023-04-25T13:55:18;5.22;;;1.10;;
31692;SDS011;37436;53.230;6.614;2023-04-25T13:57:44;6.00;;;1.15;;
31692;SDS011;37436;53.230;6.614;2023-04-25T14:00:10;8.07;;;1.10;;
31692;SDS011;37436;53.230;6.614;2023-04-25T14:02:37;10.63;;;1.63;;
31692;SDS011;37436;53.230;6.614;2023-04-25T14:05:04;6.05;;;1.42;;
31692;SDS011;37436;53.230;6.614;2023-04-25T14:07:32;10.88;;;1.70;;
31692;SDS011;37436;53.230;6.614;2023-04-25T14:10:06;4.93;;;1.73;;
31692;SDS011;37436;53.230;6.614;2023-04-25T14:12:35;7.32;;;2.38;;
31692;SDS011;37436;53.230;6.614;2023-04-25T14:15:01;12.10;;;1.80;;
31692;SDS011;37436;53.230;6.614;2023-04-25T14:17:27;9.27;;;1.90;;
31692;SDS011;37436;53.230;6.614;2023-04-25T14:19:53;9.20;;;1.20;;
31692;SDS011;37436;53.230;6.614;2023-04-25T14:22:20;3.75;;;1.50;;
31692;SDS011;37436;53.230;6.614;2023-04-25T14:24:49;7.45;;;1.30;;
31692;SDS011;37436;53.230;6.614;2023-04-25T14:27:16;5.40;;;1.63;;
31692;SDS011;37436;53.230;6.614;2023-04-25T14:29:42;5.80;;;2.17;;
31692;SDS011;37436;53.230;6.614;2023-04-25T14:32:11;6.43;;;1.63;;
31692;SDS011;37436;53.230;6.614;2023-04-25T14:34:37;9.18;;;1.83;;
31692;SDS011;37436;53.230;6.614;2023-04-25T14:37:03;5.90;;;1.30;;
31692;SDS011;37436;53.230;6.614;2023-04-25T14:39:32;8.23;;;1.50;;
31692;SDS011;37436;53.230;6.614;2023-04-25T14:41:58;5.03;;;1.60;;
31692;SDS011;37436;53.230;6.614;2023-04-25T14:44:24;8.40;;;1.33;;
31692;SDS011;37436;53.230;6.614;2023-04-25T14:47:00;9.07;;;1.45;;
31692;SDS011;37436;53.230;6.614;2023-04-25T14:49:27;3.10;;;1.20;;
31692;SDS011;37436;53.230;6.614;2023-04-25T14:51:53;11.13;;;1.33;;
31692;SDS011;37436;53.230;6.614;2023-04-25T14:54:20;11.75;;;1.52;;
31692;SDS011;37436;53.230;6.614;2023-04-25T14:56:46;9.45;;;2.03;;
31692;SDS011;37436;53.230;6.614;2023-04-25T14:59:14;8.77;;;1.73;;
31692;SDS011;37436;53.230;6.614;2023-04-25T15:01:42;3.38;;;1.30;;
31692;SDS011;37436;53.230;6.614;2023-04-25T15:04:09;4.88;;;1.00;;
31692;SDS011;37436;53.230;6.614;2023-04-25T15:06:35;3.92;;;1.27;;
31692;SDS011;37436;53.230;6.614;2023-04-25T15:09:04;10.65;;;1.63;;
31692;SDS011;37436;53.230;6.614;2023-04-25T15:11:31;7.13;;;1.63;;
31692;SDS011;37436;53.230;6.614;2023-04-25T15:14:00;8.02;;;2.17;;
31692;SDS011;37436;53.230;6.614;2023-04-25T15:16:26;8.65;;;1.58;;
31692;SDS011;37436;53.230;6.614;2023-04-25T15:18:59;5.28;;;1.48;;
31692;SDS011;37436;53.230;6.614;2023-04-25T15:21:30;6.43;;;1.70;;
31692;SDS011;37436;53.230;6.614;2023-04-25T15:24:05;10.18;;;1.50;;
31692;SDS011;37436;53.230;6.614;2023-04-25T15:26:32;8.57;;;1.55;;
31692;SDS011;37436;53.230;6.614;2023-04-25T15:28:59;8.07;;;2.05;;
31692;SDS011;37436;53.230;6.614;2023-04-25T15:31:38;8.30;;;1.60;;
31692;SDS011;37436;53.230;6.614;2023-04-25T15:34:07;4.55;;;1.35;;
31692;SDS011;37436;53.230;6.614;2023-04-25T15:36:33;3.47;;;1.42;;
31692;SDS011;37436;53.230;6.614;2023-04-25T15:39:20;8.43;;;1.50;;
31692;SDS011;37436;53.230;6.614;2023-04-25T15:42:12;7.32;;;1.17;;
31692;SDS011;37436;53.230;6.614;2023-04-25T15:47:42;6.78;;;1.15;;
31692;SDS011;37436;53.230;6.614;2023-04-25T15:50:14;4.57;;;1.10;;
31692;SDS011;37436;53.230;6.614;2023-04-25T15:52:45;4.97;;;1.25;;
31692;SDS011;37436;53.230;6.614;2023-04-25T15:55:15;8.15;;;2.40;;
31692;SDS011;37436;53.230;6.614;2023-04-25T15:57:42;6.47;;;1.08;;
31692;SDS011;37436;53.230;6.614;2023-04-25T16:00:12;6.47;;;1.38;;
31692;SDS011;37436;53.230;6.614;2023-04-25T16:02:45;11.13;;;1.42;;
31692;SDS011;37436;53.230;6.614;2023-04-25T16:05:32;7.55;;;1.35;;
31692;SDS011;37436;53.230;6.614;2023-04-25T16:07:58;5.28;;;1.25;;
31692;SDS011;37436;53.230;6.614;2023-04-25T16:10:38;4.70;;;1.30;;
31692;SDS011;37436;53.230;6.614;2023-04-25T16:13:07;7.47;;;1.33;;
31692;SDS011;37436;53.230;6.614;2023-04-25T16:15:44;4.40;;;1.35;;
31692;SDS011;37436;53.230;6.614;2023-04-25T16:18:11;4.88;;;1.20;;
31692;SDS011;37436;53.230;6.614;2023-04-25T16:23:29;7.50;;;1.40;;
31692;SDS011;37436;53.230;6.614;2023-04-25T16:26:20;6.20;;;1.40;;
31692;SDS011;37436;53.230;6.614;2023-04-25T16:28:55;10.60;;;1.75;;
31692;SDS011;37436;53.230;6.614;2023-04-25T16:34:34;5.22;;;1.33;;
31692;SDS011;37436;53.230;6.614;2023-04-25T16:37:36;6.70;;;1.10;;
31692;SDS011;37436;53.230;6.614;2023-04-25T17:21:45;10.57;;;1.15;;
31692;SDS011;37436;53.230;6.614;2023-04-25T17:24:24;9.85;;;3.53;;
31692;SDS011;37436;53.230;6.614;2023-04-25T17:26:51;6.13;;;1.63;;
31692;SDS011;37436;53.230;6.614;2023-04-25T17:29:17;6.18;;;1.42;;
31692;SDS011;37436;53.230;6.614;2023-04-25T17:31:43;5.80;;;1.48;;
31692;SDS011;37436;53.230;6.614;2023-04-25T17:34:10;5.05;;;1.38;;
31692;SDS011;37436;53.230;6.614;2023-04-25T17:36:40;8.10;;;1.70;;
31692;SDS011;37436;53.230;6.614;2023-04-25T17:39:06;14.20;;;2.28;;
31692;SDS011;37436;53.230;6.614;2023-04-25T17:41:35;8.02;;;1.60;;
31692;SDS011;37436;53.230;6.614;2023-04-25T17:44:02;4.38;;;1.60;;